createdAt,value
2019-03-23T00:01:36.628Z,72.10
2019-03-23T00:04:03.825Z,72.89
2019-03-23T00:06:31.209Z,73.50
2019-03-23T00:08:58.446Z,73.73
2019-03-23T00:11:25.491Z,74.00
2019-03-23T00:13:52.548Z,74.29
2019-03-23T00:16:19.579Z,74.33
2019-03-23T00:18:46.627Z,74.41
2019-03-23T00:21:13.682Z,74.25
2019-03-23T00:23:40.765Z,74.52
2019-03-23T00:26:08.068Z,73.77
2019-03-23T00:28:35.127Z,72.36
2019-03-23T00:31:02.863Z,71.20
2019-03-23T00:33:29.959Z,71.20
2019-03-23T00:35:57.113Z,71.27
2019-03-23T00:38:24.151Z,71.51
2019-03-23T00:40:52.931Z,70.53
2019-03-23T00:43:20.027Z,70.25
2019-03-23T00:45:47.024Z,70.54
2019-03-23T00:48:15.189Z,71.11
2019-03-23T00:50:42.638Z,71.52
2019-03-23T00:53:09.677Z,72.16
2019-03-23T00:55:36.801Z,72.86
2019-03-23T00:58:04.038Z,73.32
2019-03-23T01:00:31.204Z,73.88
2019-03-23T01:02:58.254Z,74.19
2019-03-23T01:05:25.380Z,74.51
2019-03-23T01:07:52.576Z,74.33
2019-03-23T01:10:20.121Z,74.52
2019-03-23T01:12:47.334Z,74.81
2019-03-23T01:15:14.487Z,75.37
2019-03-23T01:17:41.518Z,75.97
2019-03-23T01:20:09.222Z,76.15
2019-03-23T01:22:37.449Z,76.51
2019-03-23T01:25:04.918Z,76.59
2019-03-23T01:27:32.270Z,76.67
2019-03-23T01:29:59.355Z,76.22
2019-03-23T01:32:26.477Z,75.88
2019-03-23T01:34:53.548Z,75.65
2019-03-23T01:37:20.970Z,75.59
2019-03-23T01:39:48.803Z,75.82
2019-03-23T01:42:16.689Z,76.09
2019-03-23T01:44:43.996Z,76.12
2019-03-23T01:47:11.066Z,76.14
2019-03-23T01:49:38.218Z,76.09
2019-03-23T01:52:05.274Z,76.08
2019-03-23T01:54:32.333Z,76.20
2019-03-23T01:56:59.392Z,76.18
2019-03-23T01:59:26.420Z,76.36
2019-03-23T02:01:53.485Z,76.67
2019-03-23T02:04:20.546Z,77.20
2019-03-23T02:06:47.639Z,77.42
2019-03-23T02:09:14.928Z,77.34
2019-03-23T02:11:42.015Z,77.56
2019-03-23T02:14:09.052Z,78.16
2019-03-23T02:16:36.138Z,78.73
2019-03-23T02:19:03.258Z,78.98
2019-03-23T02:21:30.661Z,79.14
2019-03-23T02:23:58.247Z,79.21
2019-03-23T02:26:25.572Z,78.88
2019-03-23T02:28:52.651Z,78.64
2019-03-23T02:31:20.778Z,78.81
2019-03-23T02:33:47.842Z,79.57
2019-03-23T02:36:15.122Z,78.76
2019-03-23T02:38:42.189Z,78.58
2019-03-23T02:41:09.224Z,78.38
2019-03-23T02:43:36.623Z,78.39
2019-03-23T02:46:03.786Z,78.44
2019-03-23T02:48:31.064Z,78.16
2019-03-23T02:50:58.119Z,78.32
2019-03-23T02:53:25.295Z,78.17
2019-03-23T02:55:52.545Z,77.65
2019-03-23T02:58:19.964Z,77.62
2019-03-23T03:00:47.413Z,77.79
2019-03-23T03:03:14.484Z,77.78
2019-03-23T03:05:41.635Z,77.93
2019-03-23T03:08:08.708Z,78.15
2019-03-23T03:10:37.969Z,78.23
2019-03-23T03:13:06.190Z,78.60
2019-03-23T03:15:33.247Z,79.02
2019-03-23T03:18:00.253Z,79.08
2019-03-23T03:20:27.709Z,79.17
2019-03-23T03:22:54.739Z,79.21
2019-03-23T03:25:21.804Z,79.24
2019-03-23T03:27:48.828Z,79.16
2019-03-23T03:30:16.091Z,79.21
2019-03-23T03:32:43.146Z,79.52
2019-03-23T03:35:10.564Z,79.81
2019-03-23T03:37:37.748Z,80.13
2019-03-23T03:40:05.289Z,80.28
2019-03-23T03:42:32.339Z,80.19
2019-03-23T03:44:59.373Z,80.00
2019-03-23T03:47:27.033Z,79.96
2019-03-23T03:49:54.036Z,79.57
2019-03-23T03:52:21.063Z,79.22
2019-03-23T03:54:50.363Z,79.25
2019-03-23T03:57:17.401Z,79.35
2019-03-23T03:59:44.451Z,79.42
2019-03-23T04:02:11.507Z,78.94
2019-03-23T04:04:38.535Z,78.71
2019-03-23T04:07:06.625Z,78.79
2019-03-23T04:09:33.691Z,78.90
2019-03-23T04:12:00.933Z,78.93
2019-03-23T04:14:28.295Z,79.15
2019-03-23T04:16:55.345Z,79.50
2019-03-23T04:19:22.380Z,80.15
2019-03-23T04:21:49.428Z,80.67
2019-03-23T04:24:17.593Z,81.59
2019-03-23T04:26:44.642Z,81.42
2019-03-23T04:29:11.994Z,81.94
2019-03-23T04:31:39.021Z,81.91
2019-03-23T04:34:06.163Z,81.97
2019-03-23T04:36:33.225Z,82.20
2019-03-23T04:39:00.275Z,82.48
2019-03-23T04:41:27.336Z,83.12
2019-03-23T04:43:54.640Z,82.82
2019-03-23T04:46:21.720Z,83.07
2019-03-23T04:48:48.899Z,83.31
2019-03-23T04:51:19.237Z,83.50
2019-03-23T04:53:46.301Z,83.98
2019-03-23T04:56:14.752Z,84.11
2019-03-23T04:58:41.872Z,83.86
2019-03-23T05:01:08.970Z,84.13
2019-03-23T05:03:36.320Z,84.97
2019-03-23T05:06:03.567Z,85.53
2019-03-23T05:08:33.668Z,85.50
2019-03-23T05:10:59.884Z,85.20
2019-03-23T05:13:27.934Z,84.78
2019-03-23T05:15:55.689Z,84.40
2019-03-23T05:18:22.962Z,84.72
2019-03-23T05:20:50.250Z,85.06
2019-03-23T05:23:18.595Z,85.71
2019-03-23T05:25:45.871Z,86.58
2019-03-23T05:28:13.003Z,86.68
2019-03-23T05:30:40.350Z,86.70
2019-03-23T05:33:07.663Z,86.69
2019-03-23T05:35:34.754Z,87.53
2019-03-23T05:38:01.988Z,87.97
2019-03-23T05:40:29.084Z,88.01
2019-03-23T05:42:56.255Z,87.72
2019-03-23T05:45:23.365Z,86.80
2019-03-23T05:47:53.226Z,86.61
2019-03-23T05:50:20.738Z,86.33
2019-03-23T05:52:47.896Z,85.94
2019-03-23T05:55:15.975Z,86.05
2019-03-23T05:57:43.017Z,86.04
2019-03-23T06:00:14.405Z,85.52
2019-03-23T06:02:41.498Z,84.76
2019-03-23T06:05:08.671Z,83.12
2019-03-23T06:07:35.702Z,82.26
2019-03-23T06:10:03.905Z,81.60
2019-03-23T06:12:30.907Z,81.35
2019-03-23T06:14:57.983Z,81.36
2019-03-23T06:17:25.052Z,81.27
2019-03-23T06:19:52.066Z,81.26
2019-03-23T06:22:19.334Z,81.30
2019-03-23T06:24:46.872Z,81.08
2019-03-23T06:27:14.317Z,80.11
2019-03-23T06:29:43.603Z,79.41
2019-03-23T06:32:10.860Z,78.68
2019-03-23T06:34:37.957Z,77.36
2019-03-23T06:37:05.032Z,76.31
2019-03-23T06:39:32.328Z,75.44
2019-03-23T06:41:59.860Z,74.94
2019-03-23T06:44:26.941Z,74.97
2019-03-23T06:46:53.989Z,73.56
2019-03-23T06:49:21.080Z,71.92
2019-03-23T06:51:48.174Z,71.93
2019-03-23T06:54:15.605Z,71.63
2019-03-23T06:56:42.662Z,70.36
2019-03-23T06:59:09.712Z,69.47
2019-03-23T07:01:36.771Z,68.65
2019-03-23T07:04:04.037Z,67.72
2019-03-23T07:06:31.877Z,66.42
2019-03-23T07:08:58.992Z,64.50
2019-03-23T07:11:26.411Z,64.25
2019-03-23T07:13:53.483Z,63.15
2019-03-23T07:16:20.593Z,61.90
2019-03-23T07:18:47.628Z,60.68
2019-03-23T07:21:14.772Z,60.17
2019-03-23T07:23:42.063Z,59.60
2019-03-23T07:26:09.180Z,58.24
2019-03-23T07:28:36.263Z,56.84
2019-03-23T07:31:03.765Z,55.43
2019-03-23T07:33:30.823Z,54.74
2019-03-23T07:35:57.931Z,54.99
2019-03-23T07:38:24.998Z,53.53
2019-03-23T07:40:52.419Z,53.77
2019-03-23T07:43:19.503Z,53.42
2019-03-23T07:45:47.627Z,53.28
2019-03-23T07:48:15.051Z,52.80
2019-03-23T07:50:42.165Z,52.37
2019-03-23T07:53:11.320Z,51.29
2019-03-23T07:55:38.360Z,50.20
2019-03-23T07:58:05.421Z,47.98
2019-03-23T08:00:32.634Z,47.98
2019-03-23T08:02:59.660Z,45.86
2019-03-23T08:05:27.796Z,45.47
2019-03-23T08:07:55.154Z,44.28
2019-03-23T08:10:31.828Z,43.65
2019-03-23T08:12:59.054Z,42.57
2019-03-23T08:15:26.150Z,43.80
2019-03-23T08:17:59.023Z,43.74
2019-03-23T08:20:26.179Z,44.34
2019-03-23T08:22:53.833Z,46.51
2019-03-23T08:25:20.844Z,48.05
2019-03-23T08:27:47.914Z,48.75
2019-03-23T08:30:15.648Z,49.29
2019-03-23T08:32:42.720Z,48.55
2019-03-23T08:35:10.478Z,48.83
2019-03-23T08:37:37.544Z,48.23
2019-03-23T08:40:05.718Z,47.31
2019-03-23T08:42:34.949Z,46.46
2019-03-23T08:45:02.834Z,45.79
2019-03-23T08:47:30.762Z,45.45
2019-03-23T08:50:00.067Z,43.71
2019-03-23T08:52:28.979Z,42.23
2019-03-23T08:54:57.496Z,42.62
2019-03-23T08:57:26.894Z,42.10
2019-03-23T08:59:54.042Z,42.72
2019-03-23T09:02:21.931Z,41.72
2019-03-23T09:04:49.126Z,40.78
2019-03-23T09:07:16.461Z,40.25
2019-03-23T09:09:44.303Z,40.48
2019-03-23T09:12:12.184Z,40.02
2019-03-23T09:14:39.306Z,40.19
2019-03-23T09:17:06.723Z,38.80
2019-03-23T09:19:34.511Z,40.83
2019-03-23T09:22:01.825Z,43.16
2019-03-23T09:24:29.243Z,42.90
2019-03-23T09:26:58.380Z,43.29
2019-03-23T09:29:25.658Z,42.66
2019-03-23T09:32:28.530Z,42.06
2019-03-23T09:34:56.166Z,41.24
2019-03-23T09:37:23.933Z,41.16
2019-03-23T09:39:51.092Z,41.89
2019-03-23T09:42:18.399Z,41.50
2019-03-23T09:44:45.525Z,38.61
2019-03-23T09:47:14.093Z,39.33
2019-03-23T09:49:41.883Z,39.41
2019-03-23T09:52:09.189Z,38.78
2019-03-23T09:54:36.845Z,38.88
2019-03-23T09:57:04.951Z,37.85
2019-03-23T09:59:33.159Z,38.30
2019-03-23T10:02:02.906Z,37.02
2019-03-23T10:04:31.093Z,36.11
2019-03-23T10:06:58.775Z,35.98
2019-03-23T10:09:26.166Z,35.18
2019-03-23T10:11:53.522Z,34.82
2019-03-23T10:14:21.108Z,34.42
2019-03-23T10:16:51.972Z,33.72
2019-03-23T10:19:20.329Z,35.00
2019-03-23T10:22:01.647Z,34.65
2019-03-23T10:24:30.788Z,34.10
2019-03-23T10:26:58.029Z,34.91
2019-03-23T10:29:25.353Z,33.93
2019-03-23T10:32:01.173Z,33.75
2019-03-23T10:34:30.024Z,33.51
2019-03-23T10:37:07.880Z,33.66
2019-03-23T10:39:36.169Z,33.02
2019-03-23T10:42:06.889Z,32.94
2019-03-23T10:44:36.398Z,33.79
2019-03-23T10:47:04.138Z,32.99
2019-03-23T10:49:31.496Z,32.72
2019-03-23T10:51:59.190Z,31.94
2019-03-23T10:54:26.583Z,32.51
2019-03-23T10:56:54.658Z,33.05
2019-03-23T10:59:22.447Z,32.59
2019-03-23T11:01:54.514Z,32.17
2019-03-23T11:04:25.342Z,31.34
2019-03-23T11:07:00.109Z,30.56
2019-03-23T11:09:38.528Z,30.60
2019-03-23T11:12:06.607Z,29.10
2019-03-23T11:14:33.776Z,29.18
2019-03-23T11:17:01.242Z,28.95
2019-03-23T11:19:29.817Z,29.50
2019-03-23T11:22:00.363Z,28.39
2019-03-23T11:24:27.909Z,28.27
2019-03-23T11:26:55.797Z,27.34
2019-03-23T11:29:23.008Z,27.70
2019-03-23T11:31:50.276Z,28.48
2019-03-23T11:34:20.569Z,29.18
2019-03-23T11:36:48.212Z,28.81
2019-03-23T11:39:15.485Z,28.04
2019-03-23T11:41:42.781Z,27.42
2019-03-23T11:44:17.547Z,27.52
2019-03-23T11:46:55.193Z,28.09
2019-03-23T11:49:22.259Z,27.79
2019-03-23T11:51:49.466Z,27.69
2019-03-23T11:54:17.766Z,28.19
2019-03-23T11:56:45.550Z,27.63
2019-03-23T11:59:18.766Z,27.53
2019-03-23T12:01:52.067Z,28.07
2019-03-23T12:04:18.988Z,27.24
2019-03-23T12:06:46.339Z,27.45
2019-03-23T12:09:13.618Z,28.05
2019-03-23T12:11:40.860Z,28.27
2019-03-23T12:14:08.078Z,27.05
2019-03-23T12:16:35.657Z,27.81
2019-03-23T12:19:05.008Z,27.80
2019-03-23T12:21:32.268Z,26.83
2019-03-23T12:23:59.973Z,27.58
2019-03-23T12:26:27.215Z,26.70
2019-03-23T12:28:56.940Z,28.02
2019-03-23T12:31:26.427Z,26.35
2019-03-23T12:33:53.572Z,26.47
2019-03-23T12:36:22.623Z,26.69
2019-03-23T12:38:50.139Z,25.86
2019-03-23T12:41:23.041Z,27.24
2019-03-23T12:43:47.143Z,28.04
2019-03-23T12:46:14.625Z,29.15
2019-03-23T12:48:41.911Z,28.72
2019-03-23T12:51:20.940Z,28.69
2019-03-23T12:53:48.517Z,28.61
2019-03-23T12:56:19.243Z,27.98
2019-03-23T12:58:47.256Z,29.01
2019-03-23T13:01:14.773Z,29.26
2019-03-23T13:03:42.095Z,29.88
2019-03-23T13:06:09.665Z,31.02
2019-03-23T13:08:38.581Z,30.50
2019-03-23T13:11:10.008Z,31.79
2019-03-23T13:13:39.769Z,28.74
2019-03-23T13:16:08.556Z,30.27
2019-03-23T13:18:37.687Z,29.11
2019-03-23T13:21:06.321Z,28.79
2019-03-23T13:23:34.322Z,29.42
2019-03-23T13:26:03.104Z,29.92
2019-03-23T13:28:33.407Z,29.84
2019-03-23T13:31:03.581Z,30.29
2019-03-23T13:33:31.358Z,29.66
2019-03-23T13:36:00.108Z,29.96
2019-03-23T13:38:29.660Z,29.34
2019-03-23T13:40:57.364Z,29.51
2019-03-23T13:43:25.267Z,30.59
2019-03-23T13:45:52.780Z,32.10
2019-03-23T13:48:20.107Z,32.36
2019-03-23T13:50:49.487Z,32.46
2019-03-23T13:53:19.769Z,32.67
2019-03-23T13:55:47.953Z,31.96
2019-03-23T13:58:16.393Z,33.16
2019-03-23T14:00:44.167Z,31.58
2019-03-23T14:03:12.670Z,31.38
2019-03-23T14:05:40.184Z,30.93
2019-03-23T14:08:08.964Z,31.65
2019-03-23T14:10:38.614Z,32.15
2019-03-23T14:13:06.643Z,32.61
2019-03-23T14:15:34.721Z,33.67
2019-03-23T14:18:02.786Z,34.47
2019-03-23T14:20:30.854Z,33.95
2019-03-23T14:23:02.605Z,33.45
2019-03-23T14:25:29.743Z,33.38
2019-03-23T14:27:57.646Z,34.78
2019-03-23T14:30:53.190Z,35.59
2019-03-23T14:33:18.717Z,35.85
2019-03-23T14:35:53.805Z,37.14
2019-03-23T14:38:21.205Z,37.62
2019-03-23T14:40:49.069Z,36.63
2019-03-23T14:43:16.564Z,36.51
2019-03-23T14:45:44.172Z,36.87
2019-03-23T14:48:11.714Z,36.50
2019-03-23T14:50:39.174Z,36.75
2019-03-23T14:53:07.442Z,36.21
2019-03-23T14:55:35.098Z,36.76
2019-03-23T14:58:04.761Z,37.35
2019-03-23T15:00:33.049Z,37.22
2019-03-23T15:03:02.670Z,37.67
2019-03-23T15:05:30.642Z,39.03
2019-03-23T15:07:58.651Z,39.70
2019-03-23T15:10:26.556Z,39.85
2019-03-23T15:12:55.751Z,41.66
2019-03-23T15:15:23.192Z,44.52
2019-03-23T15:17:53.757Z,46.49
2019-03-23T15:20:21.382Z,48.26
2019-03-23T15:22:49.008Z,50.05
2019-03-23T15:25:17.008Z,51.48
2019-03-23T15:27:44.649Z,51.48
2019-03-23T15:30:12.420Z,51.85
2019-03-23T15:32:40.955Z,52.28
2019-03-23T15:35:08.376Z,52.56
2019-03-23T15:37:36.204Z,52.11
2019-03-23T15:40:04.339Z,52.36
2019-03-23T15:42:32.318Z,52.59
2019-03-23T15:45:00.305Z,52.53
2019-03-23T15:47:28.347Z,52.80
2019-03-23T15:49:56.266Z,53.46
2019-03-23T15:52:23.959Z,53.54
2019-03-23T15:54:52.257Z,54.02
2019-03-23T15:57:23.218Z,53.34
2019-03-23T15:59:52.154Z,53.47
2019-03-23T16:02:19.383Z,53.85
2019-03-23T16:04:46.730Z,53.56
2019-03-23T16:07:14.214Z,53.16
2019-03-23T16:09:41.646Z,52.74
2019-03-23T16:12:09.006Z,53.54
2019-03-23T16:14:36.096Z,53.63
2019-03-23T16:17:03.822Z,54.04
2019-03-23T16:19:32.153Z,54.79
2019-03-23T16:21:59.941Z,54.52
2019-03-23T16:24:27.050Z,55.34
2019-03-23T16:26:54.979Z,55.53
2019-03-23T16:29:25.570Z,55.81
2019-03-23T16:31:53.291Z,56.05
2019-03-23T16:34:20.548Z,57.12
2019-03-23T16:36:47.597Z,57.46
2019-03-23T16:39:15.133Z,57.49
2019-03-23T16:41:47.820Z,57.86
2019-03-23T16:44:15.024Z,57.79
2019-03-23T16:46:42.236Z,57.88
2019-03-23T16:49:09.891Z,58.26
2019-03-23T16:51:36.963Z,58.79
2019-03-23T16:54:05.251Z,59.17
2019-03-23T16:56:32.411Z,59.21
2019-03-23T16:58:59.626Z,59.71
2019-03-23T17:01:26.763Z,60.29
2019-03-23T17:03:53.992Z,60.52
2019-03-23T17:06:21.595Z,60.90
2019-03-23T17:08:48.827Z,60.52
2019-03-23T17:11:18.258Z,60.65
2019-03-23T17:13:45.454Z,60.46
2019-03-23T17:16:12.687Z,61.29
2019-03-23T17:18:45.032Z,62.56
2019-03-23T17:21:12.121Z,62.92
2019-03-23T17:23:39.313Z,62.64
2019-03-23T17:26:06.589Z,62.88
2019-03-23T17:28:33.699Z,62.96
2019-03-23T17:31:00.808Z,63.12
2019-03-23T17:33:28.249Z,62.78
2019-03-23T17:36:03.521Z,62.67
2019-03-23T17:38:30.687Z,62.58
2019-03-23T17:40:57.805Z,62.95
2019-03-23T17:43:24.926Z,63.13
2019-03-23T17:45:52.007Z,63.46
2019-03-23T17:48:19.209Z,63.68
2019-03-23T17:50:46.416Z,63.76
2019-03-23T17:53:18.732Z,64.18
2019-03-23T17:55:45.853Z,64.45
2019-03-23T17:58:13.940Z,64.88
2019-03-23T18:00:41.365Z,64.76
2019-03-23T18:03:08.451Z,64.60
2019-03-23T18:05:38.490Z,64.69
2019-03-23T18:08:05.542Z,64.69
2019-03-23T18:10:34.170Z,64.77
2019-03-23T18:13:02.446Z,64.66
2019-03-23T18:15:29.610Z,64.90
2019-03-23T18:17:57.874Z,65.09
2019-03-23T18:20:25.025Z,65.12
2019-03-23T18:22:52.103Z,65.26
2019-03-23T18:25:19.390Z,65.53
2019-03-23T18:27:46.433Z,65.30
2019-03-23T18:30:30.265Z,65.15
2019-03-23T18:32:58.331Z,64.96
2019-03-23T18:35:25.470Z,65.38
2019-03-23T18:37:52.710Z,65.27
2019-03-23T18:40:19.802Z,65.37
2019-03-23T18:42:46.987Z,65.46
2019-03-23T18:45:14.939Z,65.39
2019-03-23T18:47:42.040Z,65.54
2019-03-23T18:50:10.312Z,65.97
2019-03-23T18:52:37.799Z,66.23
2019-03-23T18:55:05.273Z,66.31
2019-03-23T18:57:32.306Z,66.51
2019-03-23T18:59:59.411Z,66.71
2019-03-23T19:02:26.459Z,66.56
2019-03-23T19:04:53.540Z,66.77
2019-03-23T19:07:20.618Z,66.61
2019-03-23T19:09:47.711Z,66.66
2019-03-23T19:12:14.881Z,66.76
2019-03-23T19:14:42.054Z,66.82
2019-03-23T19:17:09.218Z,67.18
2019-03-23T19:19:37.725Z,67.31
2019-03-23T19:22:06.007Z,67.63
2019-03-23T19:24:52.032Z,67.75
2019-03-23T19:27:19.609Z,67.83
2019-03-23T19:29:46.790Z,67.86
2019-03-23T19:32:14.912Z,67.81
2019-03-23T19:34:42.706Z,67.74
2019-03-23T19:37:09.787Z,67.81
2019-03-23T19:39:36.956Z,68.22
2019-03-23T19:42:04.230Z,68.12
2019-03-23T19:44:31.337Z,68.05
2019-03-23T19:46:58.767Z,68.50
2019-03-23T19:49:26.322Z,68.52
2019-03-23T19:51:53.801Z,68.73
2019-03-23T19:54:20.914Z,69.19
2019-03-23T19:56:48.285Z,69.08
2019-03-23T19:59:15.416Z,69.33
2019-03-23T20:01:42.753Z,70.15
2019-03-23T20:04:10.124Z,70.20
2019-03-23T20:06:38.146Z,70.11
2019-03-23T20:09:06.938Z,70.88
2019-03-23T20:11:35.111Z,71.40
2019-03-23T20:14:03.073Z,71.76
2019-03-23T20:16:31.399Z,71.75
2019-03-23T20:18:58.625Z,71.93
2019-03-23T20:21:26.746Z,72.01
2019-03-23T20:23:58.162Z,72.95
2019-03-23T20:26:25.271Z,73.40
2019-03-23T20:28:52.347Z,73.46
2019-03-23T20:31:21.533Z,73.82
2019-03-23T20:33:48.631Z,74.33
2019-03-23T20:36:16.070Z,74.30
2019-03-23T20:38:43.425Z,74.83
2019-03-23T20:41:10.950Z,75.69
2019-03-23T20:43:38.073Z,75.78
2019-03-23T20:46:05.237Z,76.43
2019-03-23T20:48:36.385Z,76.63
2019-03-23T20:51:03.104Z,76.53
2019-03-23T20:53:30.672Z,76.33
2019-03-23T20:55:57.793Z,76.18
2019-03-23T20:58:25.304Z,76.18
2019-03-23T21:00:52.822Z,75.87
2019-03-23T21:03:21.253Z,76.60
2019-03-23T21:05:48.474Z,76.13
2019-03-23T21:08:16.035Z,76.14
2019-03-23T21:10:43.200Z,76.91
2019-03-23T21:13:10.670Z,77.45
2019-03-23T21:15:37.796Z,77.45
2019-03-23T21:18:05.620Z,77.89
2019-03-23T21:20:33.876Z,78.15
2019-03-23T21:23:00.982Z,78.55
2019-03-23T21:25:28.263Z,78.59
2019-03-23T21:27:58.074Z,79.31
2019-03-23T21:30:26.474Z,79.81
2019-03-23T21:32:53.521Z,79.80
2019-03-23T21:35:20.603Z,79.80
2019-03-23T21:37:47.644Z,80.27
2019-03-23T21:40:15.953Z,81.25
2019-03-23T21:42:43.195Z,80.79
2019-03-23T21:45:10.784Z,80.49
2019-03-23T21:47:38.914Z,80.75
2019-03-23T21:50:06.831Z,81.07
2019-03-23T21:52:33.866Z,80.86
2019-03-23T21:55:01.109Z,81.33
2019-03-23T21:57:28.120Z,81.48
2019-03-23T21:59:55.225Z,81.41
2019-03-23T22:02:22.263Z,80.60
2019-03-23T22:04:49.311Z,80.20
2019-03-23T22:07:16.409Z,80.05
2019-03-23T22:09:44.605Z,79.94
2019-03-23T22:12:17.572Z,80.19
2019-03-23T22:14:45.930Z,80.37
2019-03-23T22:17:14.070Z,80.75
2019-03-23T22:19:41.297Z,81.19
2019-03-23T22:22:09.435Z,81.25
2019-03-23T22:24:36.489Z,81.01
2019-03-23T22:27:03.907Z,81.24
2019-03-23T22:29:30.975Z,81.43
2019-03-23T22:31:58.574Z,81.45
2019-03-23T22:34:32.780Z,81.31
2019-03-23T22:37:30.411Z,80.85
2019-03-23T22:39:57.864Z,80.99
2019-03-23T22:42:26.590Z,81.00
2019-03-23T22:44:53.729Z,80.71
2019-03-23T22:47:20.856Z,80.36
2019-03-23T22:49:49.823Z,80.18
2019-03-23T22:52:16.905Z,79.99
2019-03-23T22:54:44.681Z,79.84
2019-03-23T22:57:11.817Z,79.59
2019-03-23T22:59:41.241Z,79.60
2019-03-23T23:02:08.654Z,79.46
2019-03-23T23:04:35.722Z,79.38
2019-03-23T23:07:02.968Z,79.39
2019-03-23T23:09:30.145Z,79.31
2019-03-23T23:11:57.825Z,79.46
2019-03-23T23:14:25.267Z,80.74
2019-03-23T23:16:53.163Z,80.84
2019-03-23T23:19:22.808Z,80.16
2019-03-23T23:21:50.233Z,80.26
2019-03-23T23:24:20.332Z,79.75
2019-03-23T23:26:47.932Z,79.47
2019-03-23T23:29:15.293Z,79.46
2019-03-23T23:31:42.406Z,79.24
2019-03-23T23:34:11.166Z,78.94
2019-03-23T23:36:38.642Z,79.13
2019-03-23T23:39:06.382Z,79.05
2019-03-23T23:41:33.450Z,79.39
2019-03-23T23:44:00.829Z,79.60
2019-03-23T23:46:28.250Z,79.20
2019-03-23T23:49:00.930Z,79.28
2019-03-23T23:51:28.160Z,79.17
2019-03-23T23:54:05.605Z,79.07
2019-03-23T23:56:32.663Z,78.97
2019-03-23T23:59:02.647Z,78.69
